Time;durP1;ratioP1;P1;durP2;ratioP2;P2;SDS_P1;SDS_P2;PMS_P1;PMS_P2;Temp;Humidity;BMP_temperature;BMP_pressure;BME280_temperature;BME280_humidity;BME280_pressure;Samples;Min_cycle;Max_cycle;Signal;HPM_P1;HPM_P2
2022/06/04 00:01:30;;;;;;;2.80;2.05;;;15.60;99.90;;;-144.05;54.59;125687.94;4959789;28;20122;-86
2022/06/04 00:03:56;;;;;;;5.05;2.53;;;15.50;99.90;;;-144.05;54.84;125687.94;4962511;28;20030;-85
2022/06/04 00:06:22;;;;;;;4.57;2.40;;;15.50;99.90;;;-144.05;55.12;125687.94;4979585;28;20498;-88
2022/06/04 00:08:48;;;;;;;6.10;2.65;;;15.50;99.90;;;-144.05;55.05;125687.94;4963804;28;20031;-90
2022/06/04 00:16:44;;;;;;;6.13;2.90;;;15.40;99.90;;;-144.05;55.36;125687.94;4980090;28;20037;-87
2022/06/04 00:19:11;;;;;;;6.05;3.10;;;15.30;99.90;;;-144.05;55.78;125687.94;4961335;28;20444;-86
2022/06/04 00:21:38;;;;;;;5.90;2.35;;;15.20;99.90;;;-144.05;55.74;125687.94;4977957;28;20031;-87
2022/06/04 00:24:06;;;;;;;5.10;2.53;;;15.20;99.90;;;-144.05;55.60;125687.94;4978526;28;20098;-87
2022/06/04 00:26:32;;;;;;;3.47;2.53;;;15.20;99.90;;;-144.05;55.67;125687.94;4979033;28;20384;-87
2022/06/04 00:28:58;;;;;;;3.08;2.45;;;15.20;99.90;;;-144.05;55.96;125687.94;4978733;28;20583;-88
2022/06/04 00:31:24;;;;;;;5.13;2.88;;;15.10;99.90;;;-144.05;56.27;125687.94;4962533;28;20031;-88
2022/06/04 00:33:50;;;;;;;8.00;3.00;;;15.10;99.90;;;-144.05;56.15;125687.94;4984619;28;20115;-86
2022/06/04 00:36:17;;;;;;;4.22;3.13;;;15.00;99.90;;;-144.05;56.44;125687.94;4983147;28;20058;-79
2022/06/04 00:38:45;;;;;;;4.78;2.63;;;15.00;99.90;;;-144.05;56.45;125687.94;4980461;28;20035;-85
2022/06/04 00:41:48;;;;;;;2.47;2.17;;;15.00;99.90;;;-144.05;56.44;125687.94;4976850;28;20034;-85
2022/06/04 00:44:14;;;;;;;4.35;2.97;;;15.00;99.90;;;-144.05;56.65;125687.94;4960745;28;20034;-86
2022/06/04 00:46:40;;;;;;;8.65;2.85;;;14.90;99.90;;;-144.05;56.83;125687.94;4977308;28;20027;-85
2022/06/04 00:49:13;;;;;;;4.88;2.65;;;14.90;99.90;;;-144.05;57.10;125687.94;4977187;28;20045;-87
2022/06/04 00:51:46;;;;;;;6.10;3.08;;;14.90;99.90;;;-144.05;57.24;125687.94;4961103;28;20122;-83
2022/06/04 00:54:13;;;;;;;4.53;2.78;;;14.90;99.90;;;-144.05;57.17;125687.94;4961040;28;20034;-87
2022/06/04 00:57:31;;;;;;;4.25;3.10;;;14.80;99.90;;;-144.05;57.32;125687.94;4961067;28;20031;-84
2022/06/04 01:00:24;;;;;;;8.13;3.42;;;14.80;99.90;;;-144.05;58.05;125687.94;4924156;28;20475;-85
2022/06/04 01:03:30;;;;;;;5.30;2.92;;;14.80;99.90;;;-144.05;58.63;125687.94;4976949;28;20027;-86
2022/06/04 01:06:39;;;;;;;5.63;3.20;;;14.70;99.90;;;-144.05;58.22;125687.94;4961021;28;20041;-86
2022/06/04 01:09:31;;;;;;;5.80;2.70;;;14.70;99.90;;;-144.05;58.38;125687.94;4977346;28;20142;-89
2022/06/04 01:12:23;;;;;;;6.95;2.90;;;14.70;99.90;;;-144.05;58.56;125687.94;4960524;28;20038;-86
2022/06/04 01:15:43;;;;;;;4.38;2.97;;;14.70;99.90;;;-144.05;58.86;125687.94;4976603;28;20027;-85
2022/06/04 01:18:51;;;;;;;4.65;2.85;;;14.70;99.90;;;-144.05;58.79;125687.94;4952975;28;20045;-87
2022/06/04 01:21:25;;;;;;;3.40;3.03;;;14.70;99.90;;;-144.05;59.14;125687.94;4976254;28;20043;-88
2022/06/04 01:24:51;;;;;;;3.90;2.80;;;14.60;99.90;;;-144.05;59.23;125687.94;4961721;28;20046;-89
2022/06/04 01:27:50;;;;;;;4.38;2.88;;;14.60;99.90;;;-144.05;59.42;125687.94;4961104;28;20022;-85
2022/06/04 01:30:37;;;;;;;7.60;3.55;;;14.60;99.90;;;-144.05;59.92;125687.94;4978743;28;20027;-85
2022/06/04 01:33:29;;;;;;;4.88;2.90;;;14.50;99.90;;;-144.05;60.16;125687.94;4977683;28;20050;-86
2022/06/04 01:36:53;;;;;;;6.38;3.13;;;14.50;99.90;;;-144.05;60.63;125687.94;4977459;28;20026;-88
2022/06/04 01:41:03;;;;;;;4.75;3.30;;;14.40;99.90;;;-144.05;60.94;125687.94;4883866;29;20092;-86
2022/06/04 01:42:19;;;;;;;8.95;2.95;;;14.30;99.90;;;-144.05;60.86;125687.94;4899858;29;20107;-86
2022/06/04 01:44:50;;;;;;;6.60;3.50;;;14.30;99.90;;;-144.05;60.96;125687.94;4948954;28;20039;-88
2022/06/04 01:47:20;;;;;;;4.57;3.67;;;14.30;99.90;;;-144.05;61.68;125687.94;4977013;28;20031;-86
2022/06/04 01:49:53;;;;;;;7.20;3.63;;;14.20;99.90;;;-144.05;61.65;125687.94;4977008;28;20035;-88
2022/06/04 01:52:40;;;;;;;5.57;3.10;;;14.20;99.90;;;-144.05;61.69;125687.94;4976742;28;20022;-85
2022/06/04 01:55:49;;;;;;;10.18;3.95;;;14.20;99.90;;;-144.05;61.97;125687.94;4976868;28;20119;-88
2022/06/04 01:58:27;;;;;;;6.35;3.05;;;14.10;99.90;;;-144.05;62.25;125687.94;4961096;28;20399;-85
2022/06/04 02:01:09;;;;;;;4.40;3.72;;;14.00;99.90;;;-144.05;62.54;125687.94;4976475;28;20398;-84
2022/06/04 02:04:10;;;;;;;5.07;3.95;;;14.00;99.90;;;-144.05;63.02;125687.94;4976869;28;20119;-89
2022/06/04 02:09:47;;;;;;;4.88;3.60;;;13.90;99.90;;;-144.05;63.28;125687.94;4977446;28;20046;-86
2022/06/04 02:12:14;;;;;;;5.03;3.00;;;13.80;99.90;;;-144.05;63.07;125687.94;4976051;28;20447;-86
2022/06/04 02:14:43;;;;;;;6.63;3.58;;;13.80;99.90;;;-144.05;63.16;125687.94;4976104;28;20126;-86
2022/06/04 02:17:26;;;;;;;7.00;3.42;;;13.80;99.90;;;-144.05;63.48;125687.94;4976158;28;20542;-88
2022/06/04 02:19:51;;;;;;;5.70;3.80;;;13.80;99.90;;;-144.05;63.25;125687.94;4975732;28;20136;-86
2022/06/04 02:22:17;;;;;;;6.38;3.85;;;13.80;99.90;;;-144.05;63.13;125687.94;4975652;28;20403;-86
2022/06/04 02:24:45;;;;;;;6.10;4.18;;;13.80;99.90;;;-144.05;63.39;125687.94;4975591;28;20034;-86
2022/06/04 02:27:12;;;;;;;9.15;3.40;;;13.80;99.90;;;-144.05;63.45;125687.94;4976512;28;20038;-87
2022/06/04 02:29:39;;;;;;;6.70;4.28;;;13.80;99.90;;;-144.05;63.73;125687.94;4976706;28;20054;-86
2022/06/04 02:33:13;;;;;;;5.45;4.10;;;13.80;99.90;;;-144.05;63.75;125687.94;4976109;28;20027;-87
2022/06/04 02:35:45;;;;;;;6.28;3.88;;;13.70;99.90;;;-144.05;63.74;125687.94;4960063;28;20108;-88
2022/06/04 02:38:50;;;;;;;4.65;4.10;;;13.70;99.90;;;-144.05;63.82;125687.94;4977123;28;20042;-89
2022/06/04 02:41:29;;;;;;;4.45;3.42;;;13.70;99.90;;;-144.05;63.80;125687.94;4984556;28;20023;-81
2022/06/04 02:45:31;;;;;;;5.47;3.80;;;13.70;99.90;;;-144.05;63.92;125687.94;4998930;28;20019;-79
2022/06/04 02:48:41;;;;;;;10.93;3.90;;;13.70;99.90;;;-144.05;64.04;125687.94;4859972;29;20529;-88
2022/06/04 02:51:23;;;;;;;6.57;3.67;;;13.60;99.90;;;-144.05;64.52;125687.94;4878657;29;20050;-86
2022/06/04 02:53:50;;;;;;;4.85;4.00;;;13.60;99.90;;;-144.05;64.61;125687.94;4960243;28;20070;-85
2022/06/04 02:56:31;;;;;;;5.10;3.40;;;13.50;99.90;;;-144.05;64.33;125687.94;4977322;28;20038;-89
2022/06/04 02:59:06;;;;;;;7.07;3.83;;;13.60;99.90;;;-144.05;64.52;125687.94;4977357;28;20038;-87
2022/06/04 03:01:41;;;;;;;7.82;4.20;;;13.60;99.90;;;-144.05;64.42;125687.94;4977644;28;20027;-88
2022/06/04 03:04:08;;;;;;;6.25;4.10;;;13.50;99.90;;;-144.05;64.53;125687.94;4967718;28;20031;-87
2022/06/04 03:06:35;;;;;;;8.02;3.63;;;13.50;99.90;;;-144.05;64.82;125687.94;4973977;28;20030;-87
2022/06/04 03:09:12;;;;;;;7.35;4.00;;;13.50;99.90;;;-144.05;64.70;125687.94;4977291;28;20045;-87
2022/06/04 03:11:49;;;;;;;4.93;4.03;;;13.60;99.90;;;-144.05;64.68;125687.94;4977049;28;20030;-89
2022/06/04 03:14:18;;;;;;;6.15;3.83;;;13.50;99.90;;;-144.05;64.72;125687.94;4962165;28;20023;-87
2022/06/04 03:16:48;;;;;;;4.43;3.90;;;13.50;99.90;;;-144.05;64.94;125687.94;4988708;28;20034;-87
2022/06/04 03:19:15;;;;;;;7.15;4.30;;;13.50;99.90;;;-144.05;64.86;125687.94;5007559;28;20135;-87
2022/06/04 03:21:43;;;;;;;5.10;4.30;;;13.50;99.90;;;-144.05;65.09;125687.94;4990926;28;20045;-88
2022/06/04 03:24:13;;;;;;;4.93;3.90;;;13.50;99.90;;;-144.05;64.92;125687.94;4980955;28;20287;-89
2022/06/04 03:26:40;;;;;;;4.88;3.33;;;13.50;99.90;;;-144.05;65.02;125687.94;4978635;28;20038;-90
2022/06/04 03:29:06;;;;;;;6.47;3.85;;;13.40;99.90;;;-144.05;65.31;125687.94;4994400;28;20034;-87
2022/06/04 03:31:33;;;;;;;6.05;4.32;;;13.40;99.90;;;-144.05;66.07;125687.94;4978072;28;20031;-84
2022/06/04 03:34:00;;;;;;;7.25;4.70;;;13.40;99.90;;;-144.05;66.13;125687.94;4977296;28;20031;-88
2022/06/04 03:36:27;;;;;;;9.32;4.80;;;13.30;99.90;;;-144.05;66.43;125687.94;4977390;28;20077;-86
2022/06/04 03:39:01;;;;;;;7.78;4.50;;;13.30;99.90;;;-144.05;66.51;125687.94;4996323;28;20090;-90
2022/06/04 03:41:27;;;;;;;7.50;5.10;;;13.30;99.90;;;-144.05;66.38;125687.94;4981507;28;20041;-88
2022/06/04 03:43:53;;;;;;;6.18;4.00;;;13.40;99.90;;;-144.05;66.11;125687.94;4981427;28;20030;-89
2022/06/04 03:46:24;;;;;;;8.20;4.68;;;13.30;99.90;;;-144.05;66.22;125687.94;4980797;28;20045;-88
2022/06/04 03:48:50;;;;;;;7.25;4.40;;;13.40;99.90;;;-144.05;66.34;125687.94;4994460;28;20048;-88
2022/06/04 03:51:16;;;;;;;8.07;4.50;;;13.40;99.90;;;-144.05;66.48;125687.94;4996132;28;20031;-88
2022/06/04 03:53:42;;;;;;;5.35;4.15;;;13.40;99.90;;;-144.05;66.28;125687.94;4979220;28;20636;-87
2022/06/04 03:56:08;;;;;;;7.97;4.80;;;13.40;99.90;;;-144.05;66.53;125687.94;4979311;28;20023;-87
2022/06/04 03:58:34;;;;;;;6.80;4.32;;;13.40;99.90;;;-144.05;66.47;125687.94;4963485;28;20062;-86
2022/06/04 04:01:14;;;;;;;8.55;5.00;;;13.40;99.90;;;-144.05;66.49;125687.94;4978825;28;20041;-88
2022/06/04 04:03:41;;;;;;;5.05;4.10;;;13.40;99.90;;;-144.05;66.17;125687.94;4978604;28;20100;-87
2022/06/04 04:06:22;;;;;;;9.07;4.47;;;13.40;99.90;;;-144.05;66.46;125687.94;4995019;28;20126;-87
2022/06/04 04:08:49;;;;;;;11.35;4.75;;;13.50;99.90;;;-144.05;66.20;125687.94;4993231;28;20042;-88
2022/06/04 04:11:24;;;;;;;8.32;5.47;;;13.50;99.90;;;-144.05;65.97;125687.94;4977844;28;20030;-85
2022/06/04 04:13:53;;;;;;;6.35;4.13;;;13.60;99.90;;;-144.05;65.53;125687.94;4977615;28;20030;-84
2022/06/04 04:16:22;;;;;;;6.85;4.45;;;13.60;99.90;;;-144.05;65.46;125687.94;4977804;28;20038;-86
2022/06/04 04:18:48;;;;;;;9.07;4.80;;;13.60;99.90;;;-144.05;65.53;125687.94;4978169;28;20042;-87
2022/06/04 04:21:20;;;;;;;10.95;4.85;;;13.60;99.90;;;-144.05;65.42;125687.94;4977386;28;20030;-87
2022/06/04 04:23:48;;;;;;;6.75;4.57;;;13.60;99.90;;;-144.05;65.43;125687.94;4977210;28;20142;-86
2022/06/04 04:26:16;;;;;;;6.97;4.45;;;13.60;99.90;;;-144.05;65.40;125687.94;4993221;28;20038;-86
2022/06/04 04:28:43;;;;;;;7.53;4.95;;;13.70;99.90;;;-144.05;65.07;125687.94;4976081;28;20034;-87
2022/06/04 04:31:19;;;;;;;5.82;4.72;;;13.70;99.90;;;-144.05;65.32;125687.94;4976130;28;20026;-88
2022/06/04 04:33:45;;;;;;;5.30;4.80;;;13.70;99.90;;;-144.05;65.05;125687.94;4975444;28;20031;-86
2022/06/04 04:36:11;;;;;;;6.53;4.60;;;13.80;99.90;;;-144.05;64.62;125687.94;4975110;28;20023;-87
2022/06/04 04:38:38;;;;;;;6.50;4.22;;;13.70;99.90;;;-144.05;64.06;125687.94;4974558;28;20125;-86
2022/06/04 04:41:15;;;;;;;9.55;5.00;;;13.80;99.90;;;-144.05;64.16;125687.94;4980477;28;20050;-87
2022/06/04 04:43:42;;;;;;;5.88;4.80;;;13.80;99.90;;;-144.05;64.32;125687.94;4977032;28;20034;-88
2022/06/04 04:46:13;;;;;;;9.77;5.63;;;13.80;99.90;;;-144.05;64.12;125687.94;4990947;28;20470;-86
2022/06/04 04:48:41;;;;;;;6.65;4.45;;;13.80;99.90;;;-144.05;63.94;125687.94;5000938;28;20027;-83
2022/06/04 04:51:19;;;;;;;9.43;4.65;;;13.90;99.90;;;-144.05;63.89;125687.94;4999782;28;20046;-83
2022/06/04 04:53:46;;;;;;;8.27;4.70;;;13.90;99.90;;;-144.05;63.63;125687.94;4979953;28;20066;-87
2022/06/04 04:56:20;;;;;;;9.50;4.85;;;13.90;99.90;;;-144.05;63.47;125687.94;4977709;28;20066;-87
2022/06/04 04:58:47;;;;;;;7.57;5.15;;;13.90;99.90;;;-144.05;63.16;125687.94;4980399;28;20033;-89
2022/06/04 05:01:26;;;;;;;5.78;4.70;;;14.00;99.90;;;-144.05;62.87;125687.94;4983480;28;20027;-88
2022/06/04 05:03:55;;;;;;;8.75;4.95;;;14.00;99.90;;;-144.05;63.11;125687.94;4981628;28;20027;-89
2022/06/04 05:06:24;;;;;;;7.10;4.68;;;14.10;99.90;;;-144.05;62.49;125687.94;4979968;28;20094;-86
2022/06/04 05:08:54;;;;;;;6.65;4.45;;;14.20;99.90;;;-144.05;62.37;125687.94;4996354;28;20037;-87
2022/06/04 05:11:29;;;;;;;5.03;4.38;;;14.20;99.90;;;-144.05;61.23;125687.94;4986387;28;20039;-91
2022/06/04 05:14:00;;;;;;;9.68;4.15;;;14.40;99.90;;;-144.05;60.83;125687.94;4945835;29;20030;-88
2022/06/04 05:16:36;;;;;;;9.45;4.85;;;14.60;99.90;;;-144.05;59.75;125687.94;4946443;29;20031;-89
2022/06/04 05:19:04;;;;;;;6.15;3.90;;;14.80;99.90;;;-144.05;59.50;125687.94;4962096;29;20035;-85
2022/06/04 05:21:48;;;;;;;5.90;4.53;;;14.90;99.90;;;-144.05;58.78;125687.94;4961569;29;20042;-85
2022/06/04 05:24:23;;;;;;;9.35;5.43;;;15.00;99.90;;;-144.05;58.21;125687.94;4959645;28;20034;-88
2022/06/04 05:26:50;;;;;;;7.55;4.70;;;15.10;99.90;;;-144.05;57.99;125687.94;4960491;29;20058;-87
2022/06/04 05:29:20;;;;;;;6.80;3.80;;;15.20;99.90;;;-144.05;57.52;125687.94;4960187;29;20055;-86
2022/06/04 05:31:47;;;;;;;8.20;5.22;;;15.40;99.90;;;-144.05;56.74;125687.94;4943890;29;20193;-87
2022/06/04 05:34:18;;;;;;;11.40;4.90;;;15.50;99.90;;;-144.05;56.13;125687.94;4959296;28;20034;-85
2022/06/04 05:36:46;;;;;;;7.90;5.32;;;15.60;99.90;;;-144.05;56.52;125687.94;4943403;29;20095;-87
2022/06/04 05:39:14;;;;;;;6.88;4.85;;;15.70;99.90;;;-144.05;55.65;125687.94;4960107;29;20484;-87
2022/06/04 05:41:42;;;;;;;6.90;4.55;;;15.80;99.90;;;-144.05;55.05;125687.94;4960261;29;20027;-86
2022/06/04 05:44:09;;;;;;;7.18;4.90;;;16.00;99.90;;;-144.05;54.44;125687.94;4943836;29;20031;-89
2022/06/04 05:46:37;;;;;;;7.07;4.70;;;16.10;99.90;;;-144.05;54.88;125687.94;4959759;29;20039;-88
2022/06/04 05:49:03;;;;;;;8.30;4.63;;;16.10;99.90;;;-144.05;54.89;125687.94;4959094;29;20042;-86
2022/06/04 05:51:31;;;;;;;5.90;4.90;;;16.00;99.90;;;-144.05;54.99;125687.94;4944027;29;20055;-89
2022/06/04 05:53:58;;;;;;;7.07;5.00;;;15.90;99.90;;;-144.05;55.40;125687.94;4942896;29;20094;-86
2022/06/04 05:56:33;;;;;;;7.25;5.60;;;15.90;99.90;;;-144.05;55.89;125687.94;4960671;29;20083;-86
2022/06/04 05:59:04;;;;;;;9.83;5.43;;;15.80;99.90;;;-144.05;56.66;125687.94;4942339;29;20035;-86
2022/06/04 06:01:33;;;;;;;8.25;5.28;;;15.60;99.90;;;-144.05;56.57;125687.94;4960220;29;20027;-84
2022/06/04 06:04:01;;;;;;;8.30;5.43;;;15.50;99.90;;;-144.05;56.93;125687.94;4942147;29;20035;-86
2022/06/04 06:06:32;;;;;;;7.50;5.10;;;15.50;99.90;;;-144.05;57.05;125687.94;4942648;29;20036;-86
2022/06/04 06:09:06;;;;;;;7.93;5.28;;;15.50;99.90;;;-144.05;56.42;125687.94;4957301;29;20035;-86
2022/06/04 06:11:33;;;;;;;5.28;4.45;;;15.50;99.90;;;-144.05;56.48;125687.94;4942957;28;20037;-85
2022/06/04 06:14:01;;;;;;;6.22;4.75;;;15.60;99.90;;;-144.05;56.18;125687.94;4943721;29;20090;-88
2022/06/04 06:17:06;;;;;;;6.85;5.28;;;15.70;99.90;;;-144.05;55.57;125687.94;4957684;29;20416;-85
2022/06/04 06:19:32;;;;;;;5.63;4.70;;;15.90;99.90;;;-144.05;55.29;125687.94;4937856;29;20070;-87
2022/06/04 06:21:58;;;;;;;8.23;5.25;;;16.00;99.90;;;-144.05;55.40;125687.94;4957457;29;20114;-87
2022/06/04 06:24:24;;;;;;;8.10;4.90;;;16.00;99.90;;;-144.05;55.53;125687.94;4941786;29;20122;-88
2022/06/04 06:26:58;;;;;;;7.35;4.80;;;16.00;99.90;;;-144.05;54.95;125687.94;4941117;29;20031;-87
2022/06/04 06:29:31;;;;;;;6.10;5.35;;;16.20;99.90;;;-144.05;54.32;125687.94;4940782;29;20058;-86
2022/06/04 06:32:00;;;;;;;7.95;5.07;;;16.40;99.90;;;-144.05;54.25;125687.94;4957951;29;20035;-86
2022/06/04 06:34:28;;;;;;;6.32;4.38;;;16.40;99.90;;;-144.05;54.11;125687.94;4941335;29;20035;-88
2022/06/04 06:36:56;;;;;;;10.88;4.63;;;16.50;99.90;;;-144.05;53.23;125687.94;4941658;29;20023;-87
2022/06/04 06:39:23;;;;;;;7.20;4.20;;;16.70;99.90;;;-144.05;52.65;125687.94;4956138;29;20126;-89
2022/06/04 06:41:49;;;;;;;6.03;4.07;;;16.80;99.90;;;-144.05;52.16;125687.94;4956826;29;20031;-86
2022/06/04 06:44:15;;;;;;;7.43;4.72;;;17.00;99.90;;;-144.05;51.78;125687.94;4940770;29;20023;-87
2022/06/04 06:46:48;;;;;;;4.88;4.10;;;17.00;99.90;;;-144.05;51.61;125687.94;4940731;29;20101;-86
2022/06/04 06:49:25;;;;;;;5.90;4.30;;;17.10;99.90;;;-144.05;51.38;125687.94;4940345;29;20039;-89
2022/06/04 06:52:01;;;;;;;4.45;4.05;;;17.20;99.90;;;-144.05;51.15;125687.94;4941117;29;20023;-90
2022/06/04 06:54:34;;;;;;;6.45;4.35;;;17.10;99.90;;;-144.05;50.72;125687.94;4942368;29;20170;-88
2022/06/04 06:57:07;;;;;;;6.45;4.43;;;17.30;99.90;;;-144.05;50.05;125687.94;4956757;28;20020;-82
2022/06/04 06:59:34;;;;;;;6.22;4.53;;;17.50;99.90;;;-144.05;49.37;125687.94;4972132;28;20078;-88
2022/06/04 07:02:02;;;;;;;4.47;4.03;;;17.90;99.90;;;-144.05;49.16;125687.94;4941340;29;20027;-87
2022/06/04 07:04:29;;;;;;;7.07;4.25;;;18.20;99.90;;;-144.05;47.00;125687.94;4938892;29;20034;-87
2022/06/04 07:07:01;;;;;;;8.13;4.03;;;18.70;99.90;;;-144.05;46.71;125687.94;4955811;29;20031;-87
2022/06/04 07:09:34;;;;;;;8.55;4.80;;;18.90;99.90;;;-144.05;46.34;125687.94;4939652;28;20034;-88
2022/06/04 07:12:02;;;;;;;4.65;4.15;;;19.20;99.90;;;-144.05;45.42;125687.94;4956676;28;20031;-85
2022/06/04 07:14:28;;;;;;;6.93;4.63;;;19.50;99.90;;;-144.05;44.24;125687.94;4957510;29;20046;-84
2022/06/04 07:16:58;;;;;;;8.13;3.70;;;19.90;99.90;;;-144.05;44.97;125687.94;4941423;29;20027;-88
2022/06/04 07:19:26;;;;;;;5.68;3.83;;;19.60;99.90;;;-144.05;43.99;125687.94;4956539;29;20023;-85
2022/06/04 07:21:56;;;;;;;5.55;3.85;;;19.90;99.90;;;-144.05;43.73;125687.94;4957533;29;20035;-85
2022/06/04 07:24:23;;;;;;;5.63;3.70;;;20.10;99.90;;;-144.05;42.98;125687.94;4956232;28;20058;-88
2022/06/04 07:26:50;;;;;;;8.43;4.13;;;20.40;99.90;;;-144.05;42.41;125687.94;4957508;29;20095;-87
2022/06/04 07:29:18;;;;;;;5.35;3.95;;;20.50;99.90;;;-144.05;42.46;125687.94;4940921;29;20062;-87
2022/06/04 07:31:44;;;;;;;6.35;4.35;;;20.70;99.90;;;-144.05;41.83;125687.94;4941915;29;20027;-91
2022/06/04 07:34:10;;;;;;;6.53;4.15;;;20.80;99.90;;;-144.05;42.13;125687.94;4941181;29;20125;-89
2022/06/04 07:36:43;;;;;;;5.93;3.97;;;20.60;99.90;;;-144.05;42.82;125687.94;4957180;29;20085;-88
2022/06/04 07:39:15;;;;;;;6.85;4.57;;;20.60;99.90;;;-144.05;41.94;125687.94;4950681;29;20376;-89
2022/06/04 07:41:51;;;;;;;5.63;3.88;;;20.50;99.90;;;-144.05;42.60;125687.94;4957449;28;20042;-88
2022/06/04 07:44:21;;;;;;;5.78;4.43;;;20.70;99.90;;;-144.05;41.74;125687.94;4957333;29;20031;-91
2022/06/04 07:46:49;;;;;;;6.75;3.95;;;20.90;99.90;;;-144.05;41.79;125687.94;4957207;29;20031;-90
2022/06/04 07:49:18;;;;;;;4.10;3.63;;;20.90;99.90;;;-144.05;41.95;125687.94;4957682;29;20042;-89
2022/06/04 07:51:48;;;;;;;4.15;3.20;;;20.80;99.90;;;-144.05;42.82;125687.94;4940408;29;20050;-87
2022/06/04 07:54:16;;;;;;;5.60;4.68;;;20.70;99.90;;;-144.05;42.20;125687.94;4940874;29;20027;-88
2022/06/04 07:56:43;;;;;;;4.53;3.90;;;20.70;99.90;;;-144.05;42.83;125687.94;4957234;29;20094;-85
2022/06/04 07:59:15;;;;;;;5.53;3.65;;;20.50;99.90;;;-144.05;42.67;125687.94;4941243;29;20650;-86
2022/06/04 08:01:43;;;;;;;4.50;3.10;;;20.50;99.90;;;-144.05;42.96;125687.94;4941311;29;20096;-86
2022/06/04 08:04:10;;;;;;;7.57;3.60;;;20.50;99.90;;;-144.05;42.61;125687.94;4958041;28;20031;-89
2022/06/04 08:06:36;;;;;;;6.05;3.63;;;20.60;99.90;;;-144.05;42.44;125687.94;4958621;29;20042;-89
2022/06/04 08:09:03;;;;;;;5.30;3.50;;;20.60;99.90;;;-144.05;42.95;125687.94;4943249;29;20047;-89
2022/06/04 08:11:32;;;;;;;5.25;3.85;;;20.60;99.90;;;-144.05;42.49;125687.94;4944247;29;20055;-89
2022/06/04 08:14:10;;;;;;;5.47;3.72;;;20.50;99.90;;;-144.05;42.86;125687.94;4960285;28;20031;-90
2022/06/04 08:16:42;;;;;;;6.45;4.07;;;20.30;99.90;;;-144.05;43.06;125687.94;4959282;29;20027;-88
2022/06/04 08:19:09;;;;;;;6.47;3.30;;;20.40;99.90;;;-144.05;43.53;125687.94;4941749;29;20042;-86
2022/06/04 08:21:39;;;;;;;7.85;3.88;;;20.40;99.90;;;-144.05;43.45;125687.94;4954762;28;20035;-87
2022/06/04 08:24:07;;;;;;;4.40;3.47;;;20.40;99.90;;;-144.05;43.06;125687.94;4958229;28;20145;-87
2022/06/04 08:26:33;;;;;;;5.03;3.28;;;20.50;99.90;;;-144.05;42.47;125687.94;4958344;28;20049;-88
2022/06/04 08:28:59;;;;;;;3.47;2.95;;;20.60;99.90;;;-144.05;41.74;125687.94;4962159;29;20103;-88
2022/06/04 08:31:25;;;;;;;4.55;3.50;;;20.90;99.90;;;-144.05;41.54;125687.94;4960950;29;20386;-86
2022/06/04 08:33:52;;;;;;;6.18;3.97;;;21.10;99.90;;;-144.05;41.32;125687.94;4962344;28;20027;-88
2022/06/04 08:36:19;;;;;;;7.35;3.80;;;21.00;99.90;;;-144.05;41.57;125687.94;4947299;29;20030;-87
2022/06/04 08:38:47;;;;;;;7.80;4.18;;;21.00;99.90;;;-144.05;42.13;125687.94;4946202;29;20028;-88
2022/06/04 08:42:04;;;;;;;8.82;4.03;;;21.10;99.90;;;-144.05;41.36;125687.94;4945834;29;20456;-88
2022/06/04 08:45:00;;;;;;;6.68;3.47;;;21.10;99.90;;;-144.05;41.67;125687.94;4956363;29;20043;-87
2022/06/04 08:47:49;;;;;;;5.33;3.80;;;21.00;99.90;;;-144.05;41.59;125687.94;4957578;29;20035;-87
2022/06/04 08:50:35;;;;;;;5.38;4.15;;;20.90;99.90;;;-144.05;41.89;125687.94;4958947;29;20042;-89
2022/06/04 08:53:05;;;;;;;5.35;3.67;;;21.00;99.90;;;-144.05;41.66;125687.94;4963272;28;20086;-90
2022/06/04 08:59:31;;;;;;;4.50;3.50;;;21.30;99.90;;;-144.05;40.48;125687.94;4966019;29;20570;-88
2022/06/04 09:02:06;;;;;;;6.80;3.67;;;21.60;99.90;;;-144.05;39.73;125687.94;4964475;29;20076;-87
2022/06/04 09:05:21;;;;;;;5.53;3.67;;;22.00;99.90;;;-144.05;39.66;125687.94;4975150;28;20041;-85
2022/06/04 09:08:20;;;;;;;4.43;4.00;;;22.20;99.90;;;-144.05;39.13;125687.94;4970415;28;20035;-87
2022/06/04 09:11:04;;;;;;;6.25;2.63;;;22.30;99.30;;;-144.05;38.90;125687.94;4944296;29;20035;-90
2022/06/04 09:13:46;;;;;;;5.60;3.40;;;22.80;99.90;;;-144.05;37.95;125687.94;4960746;29;20118;-85
2022/06/04 09:16:31;;;;;;;8.10;3.67;;;23.00;98.20;;;-144.05;37.77;125687.94;4969387;28;20430;-86
2022/06/04 09:19:04;;;;;;;4.50;3.10;;;23.20;96.20;;;-144.05;37.71;125687.94;4975823;28;20045;-87
2022/06/04 09:21:39;;;;;;;8.13;3.75;;;23.50;95.50;;;-144.05;37.44;125687.94;4960718;29;20039;-88
2022/06/04 09:24:06;;;;;;;5.95;3.33;;;23.40;92.30;;;-144.05;37.01;125687.94;4960031;28;20035;-87
2022/06/04 09:26:51;;;;;;;4.00;3.20;;;23.60;92.50;;;-144.05;37.92;125687.94;4944268;29;20070;-86
2022/06/04 09:29:58;;;;;;;4.28;3.63;;;23.50;94.20;;;-144.05;37.09;125687.94;4943199;29;20078;-89
2022/06/04 09:32:45;;;;;;;6.95;3.95;;;23.60;91.40;;;-144.05;37.87;125687.94;4942425;28;20104;-86
2022/06/04 09:35:30;;;;;;;7.88;3.80;;;23.60;92.60;;;-144.05;36.68;125687.94;4958754;29;20070;-87
2022/06/04 09:38:02;;;;;;;7.65;3.05;;;23.80;89.20;;;-144.05;35.94;125687.94;4943092;29;20039;-87
2022/06/04 09:40:38;;;;;;;4.07;3.13;;;24.10;88.30;;;-144.05;36.85;125687.94;4960008;29;20113;-87
2022/06/04 09:43:16;;;;;;;4.82;3.42;;;24.10;90.40;;;-144.05;36.86;125687.94;4941893;29;20554;-88
2022/06/04 09:45:55;;;;;;;4.82;3.70;;;23.80;89.40;;;-144.05;37.04;125687.94;4955292;29;20048;-87
2022/06/04 09:48:51;;;;;;;6.00;3.38;;;23.50;88.80;;;-144.05;37.73;125687.94;4958422;29;20395;-84
2022/06/04 09:51:28;;;;;;;5.65;3.47;;;23.20;91.50;;;-144.05;38.06;125687.94;4943529;29;20035;-88
2022/06/04 09:54:05;;;;;;;5.20;3.90;;;23.10;93.00;;;-144.05;37.86;125687.94;4957756;28;20043;-88
2022/06/04 09:56:41;;;;;;;7.20;3.30;;;23.10;92.00;;;-144.05;37.99;125687.94;4959991;29;20027;-91
2022/06/04 09:59:21;;;;;;;;;;;23.00;92.90;;;-144.05;38.24;125687.94;4969371;28;20031;-87
2022/06/04 10:02:16;;;;;;;4.82;3.53;;;23.00;93.50;;;-144.05;38.49;125687.94;4976682;28;19910;-89
2022/06/04 10:05:07;;;;;;;5.97;3.70;;;22.80;94.80;;;-144.05;38.48;125687.94;4944626;29;20066;-90
2022/06/04 10:07:38;;;;;;;6.03;4.78;;;22.70;96.00;;;-144.05;39.16;125687.94;4945091;29;20043;-90
2022/06/04 10:10:28;;;;;;;7.07;5.00;;;22.80;95.70;;;-144.05;38.82;125687.94;4945135;29;20031;-91
2022/06/04 10:15:50;;;;;;;5.65;4.35;;;22.60;95.70;;;-144.05;38.82;125687.94;4963738;29;20082;-91
2022/06/04 10:18:29;;;;;;;6.00;4.13;;;22.50;95.40;;;-144.05;39.16;125687.94;4960811;29;20142;-89
2022/06/04 10:21:20;;;;;;;8.27;4.50;;;22.60;96.60;;;-144.05;39.58;125687.94;4942831;29;20118;-87
2022/06/04 10:24:00;;;;;;;5.45;4.03;;;22.80;98.40;;;-144.05;38.80;125687.94;4941071;29;20038;-87
2022/06/04 10:27:06;;;;;;;7.40;4.75;;;22.70;96.40;;;-144.05;39.33;125687.94;4958156;29;20095;-89
2022/06/04 10:29:50;;;;;;;5.55;4.85;;;22.70;97.10;;;-144.05;38.98;125687.94;4943632;29;20042;-88
2022/06/04 10:33:01;;;;;;;7.22;4.53;;;22.70;95.30;;;-144.05;40.12;125687.94;4957936;29;20041;-85
2022/06/04 10:36:04;;;;;;;5.82;4.07;;;22.60;98.10;;;-144.05;39.25;125687.94;4956619;29;20023;-88
2022/06/04 10:39:19;;;;;;;7.38;4.53;;;22.80;95.30;;;-144.05;39.94;125687.94;4955773;29;20506;-90
2022/06/04 10:42:22;;;;;;;5.90;4.47;;;22.80;96.60;;;-144.05;38.92;125687.94;4971901;28;20126;-88
2022/06/04 10:45:49;;;;;;;7.88;4.55;;;23.00;95.20;;;-144.05;39.39;125687.94;4955560;28;20058;-91
2022/06/04 10:48:58;;;;;;;9.02;4.50;;;22.90;95.70;;;-144.05;39.08;125687.94;4940613;29;20023;-89
2022/06/04 10:51:57;;;;;;;7.88;4.40;;;23.00;95.20;;;-144.05;39.10;125687.94;4955276;29;20404;-89
2022/06/04 10:54:52;;;;;;;5.30;3.72;;;23.10;96.10;;;-144.05;37.84;125687.94;4956256;28;20476;-90